»·PEaware :: FDX3650 KSEA-KGEG

FDX3650 :: KSEA-KGEG

FLIGHT INFORMATION

Flight Status: Arrived
Operator:
Federal Express
More flights by this operator :: More flights under this callsign
Pilot: David C. (16084)
Aircraft: AIRBUS A300B4-600
(A306)
More flights by this aircraft type
Origin: KSEA Seattle-Tacoma Intl
United States
Destination: KGEG Spokane Intl
United States
More flights between these airports :: More routes between these airports
Route: SEA7 ZADON ZELAK ZIRAN ZOOMR ZOOMR1
File this flight plan on PilotEdge
Remarks:
Altitude:
(Current/Filed)
27,000ft
Speed:
(Current/Filed)
471kts
Departed: 16-Feb-21 06:02 PM
Arrived: 16-Feb-21 06:49 PM
Distance/Time
Traveled:
194nm/0:47
Distance/Time
To Go:
Arrived

Flight Plot

Page will automatically refresh every two minutes.

Flight plan parsing failed; only flown route is shown


Map Options




Map Legend


Flown Route
Filed Route
Departure Airport
Arrival Airport
Navaid (VOR, NDB)
Fix

Horizontal Profiles

Position Reports

Time Latitude Longitude Heading Altitude Ground
Speed
16-Feb-21 17:11 47.460997 -122.302707 180 482ft 0kts
16-Feb-21 17:12 47.460997 -122.302707 180 482ft 0kts
16-Feb-21 17:13 47.460997 -122.302707 180 482ft 0kts
16-Feb-21 17:14 47.460997 -122.302707 180 482ft 0kts
16-Feb-21 17:15 47.460997 -122.302707 180 482ft 0kts
16-Feb-21 17:16 47.460997 -122.302707 180 482ft 0kts
16-Feb-21 17:17 47.460997 -122.302707 180 482ft 0kts
16-Feb-21 17:18 47.460997 -122.302707 180 482ft 0kts
16-Feb-21 17:19 47.460997 -122.302707 180 482ft 0kts
16-Feb-21 17:20 47.460997 -122.302707 180 482ft 0kts
16-Feb-21 17:21 47.460997 -122.302707 180 482ft 0kts
16-Feb-21 17:22 47.460997 -122.302707 180 482ft 0kts
16-Feb-21 17:23 47.460997 -122.302707 180 482ft 0kts
16-Feb-21 17:24 47.460997 -122.302707 180 482ft 0kts
16-Feb-21 17:25 47.460997 -122.302707 180 482ft 0kts
16-Feb-21 17:26 47.460997 -122.302707 180 482ft 0kts
16-Feb-21 17:27 47.460997 -122.302707 180 482ft 0kts
16-Feb-21 17:28 47.460997 -122.302707 180 482ft 0kts
16-Feb-21 17:29 47.460997 -122.302707 180 482ft 0kts
16-Feb-21 17:30 47.460997 -122.302707 180 482ft 0kts
16-Feb-21 17:31 47.460997 -122.302707 180 482ft 0kts
16-Feb-21 17:32 47.460997 -122.302707 180 482ft 0kts
16-Feb-21 17:33 47.460997 -122.302707 180 482ft 0kts
16-Feb-21 17:34 47.460997 -122.302707 180 482ft 0kts
16-Feb-21 17:35 47.460997 -122.302707 180 482ft 0kts
16-Feb-21 17:36 47.460997 -122.302707 180 482ft 0kts
16-Feb-21 17:37 47.460997 -122.302707 180 482ft 0kts
16-Feb-21 17:38 47.460997 -122.302707 180 482ft 0kts
16-Feb-21 17:39 47.460997 -122.302707 180 482ft 0kts
16-Feb-21 17:40 47.460997 -122.302707 180 482ft 0kts
16-Feb-21 17:41 47.460997 -122.302707 180 482ft 0kts
16-Feb-21 17:42 47.461020 -122.302707 181 482ft 1kts
16-Feb-21 17:43 47.461614 -122.302624 195 482ft 2kts
16-Feb-21 17:44 47.461868 -122.302493 204 482ft 0kts
16-Feb-21 17:46 47.461870 -122.302492 204 482ft 0kts
16-Feb-21 17:47 47.461870 -122.302492 204 482ft 0kts
16-Feb-21 17:48 47.461870 -122.302492 204 482ft 0kts
16-Feb-21 17:49 47.461870 -122.302492 204 482ft 0kts
16-Feb-21 17:50 47.461870 -122.302492 204 482ft 0kts
16-Feb-21 17:51 47.461870 -122.302492 204 482ft 0kts
16-Feb-21 17:52 47.461870 -122.302492 204 482ft 0kts
16-Feb-21 17:53 47.461870 -122.302492 204 482ft 0kts
16-Feb-21 17:54 47.461870 -122.302492 204 482ft 0kts
16-Feb-21 17:55 47.461721 -122.302854 264 482ft 6kts
16-Feb-21 17:56 47.461751 -122.303845 274 482ft 0kts
16-Feb-21 17:57 47.461751 -122.303845 274 482ft 0kts
16-Feb-21 17:58 47.461751 -122.303845 274 482ft 0kts
16-Feb-21 17:59 47.462337 -122.305111 341 482ft 12kts
16-Feb-21 18:00 47.463475 -122.306148 312 482ft 0kts
16-Feb-21 18:01 47.463570 -122.306329 304 482ft 5kts
16-Feb-21 18:02 47.457757 -122.307832 180 482ft 101kts
16-Feb-21 18:03 47.407426 -122.313113 180 2133ft 211kts
16-Feb-21 18:04 47.344996 -122.310936 181 4357ft 229kts
16-Feb-21 18:04 47.291173 -122.310161 183 6855ft 240kts
16-Feb-21 18:06 47.209527 -122.309900 185 9315ft 259kts
16-Feb-21 18:06 47.146909 -122.309910 185 10990ft 281kts
16-Feb-21 18:08 47.052620 -122.309805 185 13921ft 300kts
16-Feb-21 18:09 46.967773 -122.308537 173 14989ft 311kts
16-Feb-21 18:09 46.926479 -122.230875 80 16459ft 309kts
16-Feb-21 18:10 46.948820 -122.109800 82 18145ft 330kts
16-Feb-21 18:11 46.967113 -121.972590 69 19618ft 373kts
16-Feb-21 18:13 46.995458 -121.781930 71 21255ft 438kts
16-Feb-21 18:13 47.017062 -121.631281 71 22735ft 464kts
16-Feb-21 18:14 47.043697 -121.443698 71 24570ft 474kts
16-Feb-21 18:16 47.073790 -121.226804 71 26650ft 481kts
16-Feb-21 18:16 47.095516 -121.066372 74 26867ft 477kts
16-Feb-21 18:17 47.121080 -120.874737 75 26879ft 490kts
16-Feb-21 18:18 47.147336 -120.675028 75 26888ft 502kts
16-Feb-21 18:19 47.173366 -120.473847 75 26889ft 504kts
16-Feb-21 18:20 47.198455 -120.277184 76 26884ft 503kts
16-Feb-21 18:21 47.223836 -120.075177 76 26885ft 501kts
16-Feb-21 18:22 47.248748 -119.873681 76 26913ft 501kts
16-Feb-21 18:23 47.273315 -119.671896 76 26914ft 501kts
16-Feb-21 18:24 47.297205 -119.472140 76 26478ft 476kts
16-Feb-21 18:25 47.318374 -119.292139 77 24336ft 454kts
16-Feb-21 18:26 47.339495 -119.110449 78 22055ft 444kts
16-Feb-21 18:27 47.359848 -118.932738 77 19825ft 437kts
16-Feb-21 18:28 47.379617 -118.757625 77 17569ft 429kts
16-Feb-21 18:29 47.398114 -118.590457 77 15528ft 392kts
16-Feb-21 18:30 47.414741 -118.438021 77 13497ft 364kts
16-Feb-21 18:31 47.433409 -118.292546 61 11936ft 360kts
16-Feb-21 18:32 47.483656 -118.171894 54 10601ft 320kts
16-Feb-21 18:33 47.529374 -118.066914 54 9121ft 293kts
16-Feb-21 18:34 47.575631 -117.964482 54 7535ft 303kts
16-Feb-21 18:35 47.623722 -117.861608 53 5998ft 302kts
16-Feb-21 18:36 47.669090 -117.765988 53 5955ft 276kts
16-Feb-21 18:37 47.713004 -117.673053 53 5960ft 274kts
16-Feb-21 18:38 47.757164 -117.578183 53 4988ft 274kts
16-Feb-21 18:39 47.798507 -117.490752 53 4966ft 237kts
16-Feb-21 18:40 47.832393 -117.418781 53 4984ft 206kts
16-Feb-21 18:41 47.842957 -117.339817 103 4983ft 211kts
16-Feb-21 18:42 47.803349 -117.301970 193 4997ft 193kts
16-Feb-21 18:43 47.754943 -117.331513 224 5001ft 192kts
16-Feb-21 18:44 47.717529 -117.387857 225 4792ft 190kts
16-Feb-21 18:45 47.683757 -117.438958 224 3887ft 171kts
16-Feb-21 18:46 47.651424 -117.487831 224 2986ft 159kts
16-Feb-21 18:47 47.621934 -117.532233 226 2396ft 114kts
16-Feb-21 18:48 47.614025 -117.546119 313 2396ft 7kts
16-Feb-21 18:49 47.614160 -117.546323 314 2396ft 0kts
16-Feb-21 18:50 47.616288 -117.544756 46 2396ft 22kts
16-Feb-21 18:51 47.622758 -117.535063 45 2396ft 36kts
16-Feb-21 18:52 47.627804 -117.528344 340 2396ft 10kts
16-Feb-21 18:53 47.628209 -117.528548 341 2396ft 0kts
16-Feb-21 18:54 47.628209 -117.528548 341 2396ft 0kts
16-Feb-21 18:55 47.628209 -117.528548 341 2396ft 0kts
16-Feb-21 18:56 47.628209 -117.528548 341 2396ft 0kts
16-Feb-21 18:57 47.628209 -117.528548 341 2396ft 0kts

Navigation Log

Ident Type
Flight plan parsing failed, navigation log unavailable